Latest Weather Observations for Tibooburra Airport

IDN60801

Issued at 11:35 pm EST Sunday 21 September 2014 (issued every 30 minutes, with the page automatically refreshed every 10 minutes)

About weather observations | Map of weather stations | Latest weather observations for NSW | Other Formats
Station Details ID: 046126 Name: TIBOOBURRA AIRPORT Lat: -29.44 Lon: 142.06 Height: 176.4 m
Data from the previous 72 hours. | See also: Recent months for locations in New South Wales
Date/Time
EST
Temp
°C
App
Temp
°C
Dew
Point
Rel
Hum
%
Delta-T
°C
Wind Press
QNH
hPa
Press
MSL
hPa
Rain
since 9 am
mm
Dir
 
Spd
km/h
Gust
km/h
Spd
kts
Gust
kts
21/11:30pm 17.0 10.9 -4.3 23 8.4 SSE 19 24 10 13 1024.5 1024.1 0.0
21/11:00pm 17.4 10.7 -3.9 23 8.5 SSE 22 32 12 17 1024.7 1024.3 0.0
21/10:30pm 17.9 11.7 -3.5 23 8.7 SSE 20 26 11 14 1024.8 1024.4 0.0
21/10:00pm 18.7 12.1 -3.4 22 9.0 SSE 22 30 12 16 1024.6 1024.2 0.0
21/09:30pm 18.8 12.1 -4.0 21 9.3 SSE 22 32 12 17 1024.4 1024.0 0.0
21/09:00pm 18.9 12.3 -3.3 22 9.1 S 22 30 12 16 1024.1 1023.7 0.0
21/08:30pm 19.0 13.1 -2.6 23 9.1 S 19 24 10 13 1023.9 1023.5 0.0
21/08:00pm 19.5 13.8 -3.4 21 9.4 S 17 20 9 11 1023.7 1023.3 0.0
21/07:30pm 20.4 14.8 -3.3 20 9.9 S 17 19 9 10 1023.4 1023.0 0.0
21/07:00pm 21.4 15.1 -3.9 18 10.5 S 20 30 11 16 1023.2 1022.8 0.0
21/06:30pm 22.1 14.7 -3.3 18 10.8 S 26 37 14 20 1022.9 1022.5 0.0
21/06:00pm 23.0 15.3 -3.3 17 11.2 S 28 39 15 21 1022.6 1022.1 0.0
21/05:30pm 23.5 15.7 -3.7 16 11.6 S 28 41 15 22 1022.4 1021.9 0.0
21/05:00pm 23.7 15.5 -3.6 16 11.7 S 30 41 16 22 1022.4 1021.9 0.0
21/04:30pm 24.4 16.6 -3.9 15 12.1 SSE 28 41 15 22 1022.2 1021.7 0.0
21/04:00pm 24.3 16.1 -4.0 15 12.1 S 30 41 16 22 1022.4 1021.9 0.0
21/03:30pm 24.3 16.1 -4.0 15 12.1 S 30 44 16 24 1022.5 1022.0 0.0
21/03:00pm 24.2 15.6 -4.0 15 12.0 S 32 43 17 23 1022.9 1022.5 0.0
21/02:47pm 24.6 16.8 -3.7 15 12.2 S 28 46 15 25 1022.9 1022.5 0.0
21/02:30pm 24.4 15.8 -3.9 15 12.1 S 32 48 17 26 1023.1 1022.7 0.0
21/02:00pm 23.9 15.7 -4.3 15 11.9 S 30 48 16 26 1023.5 1023.1 0.0
21/01:49pm 23.7 15.5 -4.4 15 11.9 S 30 48 16 26 1023.7 1023.3 0.0
21/01:30pm 24.4 16.7 -3.0 16 12.0 S 28 44 15 24 1023.9 1023.5 0.0
21/01:00pm 23.5 15.9 -2.2 18 11.2 SSE 28 41 15 22 1024.4 1024.0 0.0
21/12:30pm 23.9 16.3 -1.8 18 11.4 SSE 28 43 15 23 1025.0 1024.6 0.0
21/12:00pm 23.2 16.0 -1.7 19 11.0 SE 26 41 14 22 1025.4 1025.0 0.0
21/11:30am 22.2 15.4 -1.8 20 10.5 SE 24 37 13 20 1026.0 1025.6 0.0
21/11:00am 21.7 14.6 -1.6 21 10.1 SE 26 35 14 19 1026.2 1025.8 0.0
21/10:30am 21.1 14.0 -1.4 22 9.8 SE 26 35 14 19 1026.3 1025.9 0.0
21/10:00am 20.1 12.6 -1.1 24 9.2 SE 28 35 15 19 1026.6 1026.2 0.0
21/09:30am 18.7 11.2 -1.2 26 8.6 ESE 28 37 15 20 1026.9 1026.5 0.0
21/09:00am 17.1 10.0 -1.1 29 7.7 SE 26 35 14 19 1026.7 1026.3 0.0
21/08:30am 15.8 9.1 -1.3 31 7.1 SE 24 35 13 19 1026.5 1026.1 0.0
21/08:00am 15.5 8.0 -1.1 32 6.9 SE 28 33 15 18 1026.3 1025.9 0.0
21/07:30am 14.5 7.8 -1.2 34 6.5 SE 24 35 13 19 1026.0 1025.6 0.0
21/07:00am 13.8 7.4 -1.4 35 6.2 SE 22 32 12 17 1025.7 1025.3 0.0
21/06:30am 13.3 6.9 -1.4 36 6.0 SE 22 28 12 15 1025.5 1025.1 0.0
21/06:00am 13.5 7.2 -1.3 36 6.0 SE 22 30 12 16 1025.2 1024.8 0.0
21/05:30am 13.3 7.3 -1.4 36 6.0 SE 20 30 11 16 1024.9 1024.5 0.0
21/05:00am 13.6 7.6 -1.6 35 6.1 SSE 20 28 11 15 1024.6 1024.2 0.0
21/04:30am 13.8 7.4 -1.8 34 6.3 SSE 22 28 12 15 1024.4 1024.0 0.0
21/04:00am 14.0 8.6 -1.6 34 6.3 SSE 17 26 9 14 1024.1 1023.7 0.0
21/03:30am 14.1 8.2 -1.9 33 6.5 SSE 19 24 10 13 1024.0 1023.6 0.0
21/03:00am 14.5 8.4 -2.0 32 6.7 SSE 20 26 11 14 1024.0 1023.6 0.0
21/02:30am 14.7 8.8 -2.2 31 6.8 SSE 19 24 10 13 1024.3 1023.9 0.0
21/02:00am 15.1 9.0 -2.3 30 7.0 SSE 20 28 11 15 1024.4 1024.0 0.0
21/01:30am 15.4 9.5 -2.5 29 7.3 SSE 19 24 10 13 1024.6 1024.2 0.0
21/01:00am 15.5 9.6 -2.4 29 7.2 SSE 19 22 10 12 1024.6 1024.2 0.0
21/12:30am 16.1 10.5 -2.9 27 7.7 SSE 17 20 9 11 1024.7 1024.3 0.0
21/12:00am 16.2 10.9 -3.3 26 7.8 SSE 15 20 8 11 1024.7 1024.3 0.0
 
Date/Time
EST
Temp
°C
App
Temp
°C
Dew
Point
Rel
Hum
%
Delta-T
°C
Wind Press
QNH
hPa
Press
MSL
hPa
Rain
since 9 am
mm
Dir
 
Spd
km/h
Gust
km/h
Spd
kts
Gust
kts
20/11:30pm 15.8 11.2 -4.2 25 7.8 S 11 15 6 8 1024.8 1024.4 0.0
20/11:00pm 16.0 11.0 -4.0 25 7.9 S 13 15 7 8 1024.8 1024.4 0.0
20/10:30pm 16.2 11.6 -4.4 24 8.1 SSE 11 15 6 8 1024.7 1024.3 0.0
20/10:00pm 16.5 11.5 -4.1 24 8.1 SSE 13 17 7 9 1024.7 1024.3 0.0
20/09:30pm 16.8 12.2 -3.9 24 8.3 SSE 11 13 6 7 1024.6 1024.2 0.0
20/09:00pm 16.9 12.0 -3.8 24 8.2 SSE 13 15 7 8 1024.3 1023.9 0.0
20/08:30pm 17.5 12.6 -3.8 23 8.6 SSE 13 17 7 9 1024.1 1023.7 0.0
20/08:00pm 18.1 12.8 -3.9 22 8.9 SSE 15 19 8 10 1023.8 1023.4 0.0
20/07:30pm 18.5 12.8 -3.6 22 9.0 SE 17 22 9 12 1023.5 1023.1 0.0
20/07:00pm 18.7 13.4 -3.4 22 9.0 SSE 15 19 8 10 1023.4 1023.0 0.0
20/06:30pm 19.1 13.4 -3.7 21 9.4 SE 17 22 9 12 1023.0 1022.6 0.0
20/06:00pm 19.7 13.0 -3.9 20 9.7 SE 22 28 12 15 1022.6 1022.1 0.0
20/05:30pm 20.1 13.5 -3.5 20 9.8 ESE 22 32 12 17 1022.3 1021.8 0.0
20/05:00pm 20.3 14.1 -3.4 20 9.9 SE 20 32 11 17 1021.9 1021.5 0.0
20/04:30pm 20.9 14.6 -4.3 18 10.4 SE 20 33 11 18 1022.0 1021.6 0.0
20/04:00pm 21.0 16.5 -3.5 19 10.2 SE 11 15 6 8 1021.9 1021.5 0.0
20/03:30pm 20.5 13.8 -4.6 18 10.2 E 22 26 12 14 1022.0 1021.6 0.0
20/03:00pm 20.5 13.8 -3.9 19 10.1 SE 22 28 12 15 1022.3 1021.8 0.0
20/02:30pm 20.8 15.9 -3.6 19 10.2 SE 13 22 7 12 1022.5 1022.0 0.0
20/02:00pm 20.4 14.1 -4.0 19 10.0 SSE 20 28 11 15 1022.9 1022.5 0.0
20/01:30pm 20.7 15.1 -3.0 20 10.0 SE 17 24 9 13 1023.5 1023.1 0.0
20/01:00pm 20.9 14.8 -3.6 19 10.2 SE 19 28 10 15 1023.8 1023.4 0.0
20/12:30pm 20.0 14.7 -3.6 20 9.8 ESE 15 30 8 16 1024.2 1023.8 0.0
20/12:00pm 19.2 12.9 -3.6 21 9.3 SSE 20 26 11 14 1024.3 1023.9 0.0
20/11:30am 19.1 13.2 -2.5 23 9.1 ESE 19 28 10 15 1024.6 1024.2 0.0
20/11:00am 18.6 13.5 -2.3 24 8.7 ESE 15 22 8 12 1025.0 1024.6 0.0
20/10:30am 17.6 11.7 -2.6 25 8.4 E 19 28 10 15 1025.4 1025.0 0.0
20/10:00am 18.1 11.7 -1.7 26 8.3 E 22 28 12 15 1025.8 1025.4 0.0
20/09:30am 17.3 10.9 -1.4 28 7.9 E 22 26 12 14 1026.0 1025.6 0.0
20/09:00am 16.8 10.8 -1.3 29 7.6 E 20 26 11 14 1025.8 1025.4 0.0
20/08:30am 15.5 9.5 -1.5 31 7.1 E 20 28 11 15 1025.4 1025.0 0.0
20/08:00am 13.5 8.4 -1.6 35 6.1 ESE 15 20 8 11 1025.2 1024.8 0.0
20/07:30am 11.8 7.9 -1.7 39 5.4 E 9 13 5 7 1025.0 1024.6 0.0
20/07:00am 10.1 5.0 -1.9 43 4.6 ESE 15 17 8 9 1023.9 1023.5 0.0
20/06:30am 8.8 4.4 -2.2 46 4.2 SE 11 13 6 7 1023.7 1023.3 0.0
20/06:00am 9.4 5.4 -1.9 45 4.3 SE 9 11 5 6 1023.6 1023.2 0.0
20/05:30am 9.7 5.0 -1.9 44 4.5 SE 13 15 7 8 1023.3 1022.9 0.0
20/05:00am 9.7 5.4 -1.9 44 4.5 ESE 11 11 6 6 1023.1 1022.7 0.0
20/04:30am 10.1 5.8 -1.9 43 4.7 ESE 11 13 6 7 1022.7 1022.3 0.0
20/04:00am 10.4 6.1 -1.9 42 4.8 SE 11 13 6 7 1022.5 1022.0 0.0
20/03:30am 10.3 6.3 -2.0 42 4.8 ESE 9 11 5 6 1022.4 1021.9 0.0
20/03:00am 10.5 5.7 -2.2 41 4.9 E 13 13 7 7 1022.5 1022.0 0.0
20/02:30am 10.7 6.0 -2.0 41 5.0 ESE 13 17 7 9 1022.5 1022.0 0.0
20/02:00am 10.4 6.4 -2.6 40 5.0 ESE 9 9 5 5 1022.8 1022.4 0.0
20/01:30am 10.9 6.5 -2.5 39 5.2 E 11 13 6 7 1022.6 1022.1 0.0
20/01:00am 11.5 6.7 -2.7 37 5.5 E 13 15 7 8 1022.6 1022.1 0.0
20/12:30am 12.7 7.6 -2.3 35 5.9 ESE 15 17 8 9 1022.7 1022.3 0.0
20/12:00am 13.3 7.8 -2.2 34 6.2 ESE 17 19 9 10 1022.8 1022.4 0.0
 
Date/Time
EST
Temp
°C
App
Temp
°C
Dew
Point
Rel
Hum
%
Delta-T
°C
Wind Press
QNH
hPa
Press
MSL
hPa
Rain
since 9 am
mm
Dir
 
Spd
km/h
Gust
km/h
Spd
kts
Gust
kts
19/11:30pm 13.7 8.6 -1.9 34 6.3 ESE 15 19 8 10 1022.9 1022.5 0.0
19/11:00pm 13.5 8.8 -1.6 35 6.1 ESE 13 17 7 9 1022.9 1022.5 0.0
19/10:30pm 14.1 9.9 -1.1 35 6.3 SSE 11 17 6 9 1023.0 1022.6 0.0
19/10:00pm 14.8 10.2 -0.9 34 6.5 SE 13 15 7 8 1022.9 1022.5 0.0
19/09:30pm 14.9 10.7 -1.2 33 6.7 SSE 11 13 6 7 1023.0 1022.6 0.0
19/09:00pm 15.4 11.1 -1.6 31 7.0 SE 11 13 6 7 1022.9 1022.5 0.0
19/08:30pm 15.9 12.0 -1.6 30 7.3 SSE 9 11 5 6 1022.8 1022.4 0.0
19/08:00pm 16.4 12.1 -1.7 29 7.5 SSE 11 13 6 7 1022.7 1022.3 0.0
19/07:30pm 17.3 13.0 -1.9 27 8.0 SSE 11 15 6 8 1022.3 1021.8 0.0
19/07:00pm 18.1 13.8 -1.7 26 8.3 SSE 11 15 6 8 1021.9 1021.5 0.0
19/06:30pm 19.1 14.0 -1.9 24 8.9 S 15 20 8 11 1021.7 1021.3 0.0
19/06:00pm 19.9 14.4 -1.8 23 9.3 SSE 17 24 9 13 1021.5 1021.1 0.0
19/05:30pm 20.5 15.0 -1.9 22 9.7 S 17 28 9 15 1021.2 1020.8 0.0
19/05:00pm 21.4 16.3 -1.8 21 10.1 S 15 24 8 13 1020.9 1020.5 0.0
19/04:30pm 21.0 16.6 -2.1 21 10.0 S 11 19 6 10 1020.9 1020.5 0.0
19/04:00pm 20.9 15.0 -1.0 23 9.6 SSE 20 28 11 15 1021.0 1020.6 0.0
19/03:30pm 21.5 15.6 -0.5 23 9.8 S 20 32 11 17 1021.1 1020.7 0.0
19/03:00pm 21.2 16.0 -0.1 24 9.5 SE 17 22 9 12 1021.2 1020.8 0.0
19/02:30pm 21.4 16.9 0.0 24 9.7 SW 13 19 7 10 1021.6 1021.2 0.0
19/02:00pm 20.3 16.2 -0.3 25 9.1 SW 11 19 6 10 1021.9 1021.5 0.0
19/01:30pm 20.6 16.1 -0.1 25 9.3 SSE 13 24 7 13 1022.3 1021.8 0.0
19/01:00pm 20.4 15.9 -0.3 25 9.2 SE 13 22 7 12 1022.7 1022.3 0.0
19/12:30pm 19.9 14.7 0.4 27 8.8 SE 17 24 9 13 1023.1 1022.7 0.0
19/12:00pm 19.5 15.0 0.0 27 8.6 SE 13 22 7 12 1023.3 1022.9 0.0
19/11:30am 19.1 13.5 0.2 28 8.4 SSE 19 26 10 14 1023.7 1023.3 0.0
19/11:00am 18.5 12.7 0.2 29 8.0 SE 20 26 11 14 1024.0 1023.6 0.0
19/10:30am 18.5 12.7 -0.3 28 8.2 SE 20 28 11 15 1024.2 1023.8 0.0
19/10:00am 18.4 13.3 0.5 30 7.9 SE 17 22 9 12 1024.5 1024.1 0.0
19/09:30am 16.7 11.4 -0.5 31 7.4 SE 17 24 9 13 1024.5 1024.1 0.0
19/09:00am 15.9 11.0 -0.3 33 6.9 SE 15 22 8 12 1024.4 1024.0 0.0
19/08:30am 15.4 10.5 -0.4 34 6.7 ESE 15 19 8 10 1024.3 1023.9 0.0
19/08:00am 13.7 9.6 -0.3 38 5.8 SE 11 15 6 8 1023.9 1023.5 0.0
19/07:30am 13.0 8.7 0.7 43 5.2 SSE 13 17 7 9 1023.6 1023.2 0.0
19/07:00am 12.7 8.3 0.5 43 5.1 SE 13 17 7 9 1023.0 1022.6 0.0
19/06:30am 12.4 8.0 0.5 44 5.0 SE 13 15 7 8 1022.9 1022.5 0.0
19/06:00am 12.5 8.5 0.6 44 5.0 ESE 11 15 6 8 1022.7 1022.3 0.0
19/05:30am 12.6 8.6 0.4 43 5.1 ESE 11 13 6 7 1022.7 1022.3 0.0
19/05:00am 13.0 8.7 0.7 43 5.2 ESE 13 19 7 10 1022.3 1021.8 0.0
19/04:30am 13.2 8.8 0.6 42 5.4 SE 13 17 7 9 1022.0 1021.6 0.0
19/04:00am 13.4 8.6 0.4 41 5.5 SE 15 22 8 12 1021.8 1021.4 0.0
19/03:30am 13.6 8.9 0.6 41 5.5 SE 15 20 8 11 1021.8 1021.4 0.0
19/03:00am 13.8 8.1 0.5 40 5.6 SE 20 28 11 15 1021.6 1021.2 0.0
19/02:30am 13.9 8.3 0.9 41 5.6 SE 20 26 11 14 1021.9 1021.5 0.0
19/02:00am 14.1 8.4 0.7 40 5.7 SE 20 26 11 14 1022.6 1022.1 0.0
19/01:30am 14.0 9.5 -0.1 38 5.9 S 13 22 7 12 1022.8 1022.4 0.0
19/01:00am 12.9 9.1 -1.1 38 5.7 SW 9 11 5 6 1022.9 1022.5 0.0
19/12:30am 12.3 8.4 -1.2 39 5.5 SW 9 9 5 5 1023.1 1022.7 0.0
19/12:00am 11.8 7.1 -1.7 39 5.3 SW 13 19 7 10 1023.1 1022.7 0.0

Other Formats:

Comma delimited format used in spreadsheet applications
http://www.bom.gov.au/fwo/IDN60801/IDN60801.95485.axf

JavaScript Object Notation format (JSON) in row-major order
http://www.bom.gov.au/fwo/IDN60801/IDN60801.95485.json